createdAt,value
2023-02-09T00:00:02.308Z,49.55
2023-02-09T00:02:59.350Z,49.00
2023-02-09T00:05:45.434Z,46.95
2023-02-09T00:08:31.653Z,46.85
2023-02-09T00:11:21.076Z,41.67
2023-02-09T00:14:07.292Z,46.85
2023-02-09T00:16:53.828Z,49.33
2023-02-09T00:19:39.963Z,44.70
2023-02-09T00:22:26.065Z,51.88
2023-02-09T00:25:12.259Z,43.95
2023-02-09T00:27:58.741Z,43.90
2023-02-09T00:30:45.674Z,46.38
2023-02-09T00:33:31.966Z,46.78
2023-02-09T00:36:18.705Z,48.60
2023-02-09T00:39:05.075Z,50.03
2023-02-09T00:42:07.460Z,48.90
2023-02-09T00:44:54.512Z,50.72
2023-02-09T00:47:43.885Z,49.60
2023-02-09T00:50:30.861Z,47.78
2023-02-09T00:53:17.774Z,51.92
2023-02-09T00:56:04.498Z,47.92
2023-02-09T00:58:51.825Z,50.67
2023-02-09T01:01:38.920Z,47.53
2023-02-09T01:04:25.606Z,49.00
2023-02-09T01:07:15.865Z,46.40
2023-02-09T01:10:03.236Z,54.08
2023-02-09T01:12:49.522Z,47.10
2023-02-09T01:15:35.842Z,48.92
2023-02-09T01:18:21.859Z,52.45
2023-02-09T01:21:15.724Z,50.67
2023-02-09T01:24:01.719Z,53.65
2023-02-09T01:26:48.030Z,49.85
2023-02-09T01:29:34.199Z,54.63
2023-02-09T01:32:20.524Z,50.65
2023-02-09T01:35:06.793Z,56.60
2023-02-09T01:37:53.211Z,50.83
2023-02-09T01:40:39.412Z,51.85
2023-02-09T01:43:27.259Z,52.88
2023-02-09T01:46:13.228Z,54.95
2023-02-09T01:49:19.697Z,50.47
2023-02-09T01:52:13.217Z,54.45
2023-02-09T01:55:02.247Z,48.22
2023-02-09T01:57:51.761Z,51.47
2023-02-09T02:00:38.469Z,52.78
2023-02-09T02:03:26.174Z,50.45
2023-02-09T02:06:13.751Z,53.00
2023-02-09T02:09:03.133Z,50.38
2023-02-09T02:11:49.785Z,50.25
2023-02-09T02:14:37.108Z,52.88
2023-02-09T02:17:38.753Z,53.38
2023-02-09T02:20:44.012Z,50.85
2023-02-09T02:23:49.637Z,55.90
2023-02-09T02:26:46.382Z,49.28
2023-02-09T02:29:52.324Z,54.25
2023-02-09T02:32:43.859Z,55.17
2023-02-09T02:35:36.124Z,52.22
2023-02-09T02:38:38.879Z,54.92
2023-02-09T02:41:56.688Z,56.42
2023-02-09T02:44:44.978Z,53.15
2023-02-09T02:47:33.122Z,50.33
2023-02-09T02:50:23.830Z,58.33
2023-02-09T02:53:11.695Z,56.92
2023-02-09T02:56:00.936Z,52.53
2023-02-09T02:58:48.741Z,53.00
2023-02-09T03:01:38.941Z,57.70
2023-02-09T03:04:27.267Z,59.65
2023-02-09T03:07:13.732Z,55.92
2023-02-09T03:10:02.712Z,59.33
2023-02-09T03:12:53.940Z,60.60
2023-02-09T03:15:40.589Z,60.70
2023-02-09T03:18:27.369Z,57.55
2023-02-09T03:21:17.557Z,58.30
2023-02-09T03:24:03.720Z,56.70
2023-02-09T03:26:51.705Z,54.05
2023-02-09T03:29:38.802Z,53.30
2023-02-09T03:32:26.205Z,57.28
2023-02-09T03:35:13.554Z,55.65
2023-02-09T03:38:01.292Z,56.38
2023-02-09T03:40:48.259Z,55.03
2023-02-09T03:43:53.136Z,56.88
2023-02-09T03:46:39.210Z,57.40
2023-02-09T03:49:26.447Z,59.25
2023-02-09T03:52:14.374Z,62.10
2023-02-09T03:55:02.379Z,58.20
2023-02-09T03:57:48.471Z,55.72
2023-02-09T04:00:35.389Z,56.38
2023-02-09T04:03:21.924Z,60.40
2023-02-09T04:06:10.071Z,59.55
2023-02-09T04:08:56.433Z,56.30
2023-02-09T04:11:43.401Z,61.83
2023-02-09T04:14:29.741Z,61.03
2023-02-09T04:17:15.688Z,57.72
2023-02-09T04:20:02.067Z,59.58
2023-02-09T04:22:48.599Z,58.95
2023-02-09T04:25:34.895Z,58.85
2023-02-09T04:28:21.007Z,59.88
2023-02-09T04:31:07.670Z,55.97
2023-02-09T04:33:54.333Z,57.95
2023-02-09T04:36:40.593Z,54.00
2023-02-09T04:39:27.038Z,52.55
2023-02-09T04:42:13.359Z,56.75
2023-02-09T04:44:59.509Z,55.03
2023-02-09T04:47:46.431Z,58.40
2023-02-09T04:50:32.773Z,51.70
2023-02-09T04:53:19.160Z,53.63
2023-02-09T04:56:05.987Z,51.22
2023-02-09T04:59:10.691Z,52.33
2023-02-09T05:01:56.969Z,51.42
2023-02-09T05:04:43.127Z,52.25
2023-02-09T05:07:29.539Z,53.45
2023-02-09T05:10:15.957Z,48.25
2023-02-09T05:13:02.858Z,50.00
2023-02-09T05:15:49.617Z,49.10
2023-02-09T05:18:36.351Z,49.67
2023-02-09T05:21:22.519Z,50.92
2023-02-09T05:24:08.528Z,51.75
2023-02-09T05:26:54.753Z,47.25
2023-02-09T05:29:41.034Z,46.53
2023-02-09T05:32:27.658Z,47.67
2023-02-09T05:35:13.745Z,51.15
2023-02-09T05:37:59.859Z,47.60
2023-02-09T05:40:46.741Z,44.25
2023-02-09T05:43:33.919Z,47.40
2023-02-09T05:46:20.172Z,48.05
2023-02-09T05:49:06.257Z,45.88
2023-02-09T05:51:52.984Z,46.58
2023-02-09T05:54:39.570Z,44.92
2023-02-09T05:57:26.556Z,48.42
2023-02-09T06:00:13.479Z,47.05
2023-02-09T06:03:00.612Z,46.10
2023-02-09T06:05:47.121Z,47.13
2023-02-09T06:08:33.138Z,50.63
2023-02-09T06:11:19.454Z,43.63
2023-02-09T06:14:05.778Z,42.75
2023-02-09T06:16:52.914Z,43.45
2023-02-09T06:19:39.277Z,46.40
2023-02-09T06:22:25.579Z,42.42
2023-02-09T06:25:11.989Z,43.72
2023-02-09T06:27:58.139Z,45.08
2023-02-09T06:30:44.279Z,46.05
2023-02-09T06:33:30.859Z,44.58
2023-02-09T06:36:16.990Z,44.88
2023-02-09T06:39:03.120Z,39.85
2023-02-09T06:41:49.219Z,44.63
2023-02-09T06:44:35.333Z,37.35
2023-02-09T06:47:21.772Z,39.97
2023-02-09T06:50:07.842Z,40.45
2023-02-09T06:52:54.032Z,41.92
2023-02-09T06:55:40.571Z,39.97
2023-02-09T06:58:27.316Z,39.85
2023-02-09T07:01:18.281Z,38.22
2023-02-09T07:04:04.461Z,39.78
2023-02-09T07:06:50.857Z,39.17
2023-02-09T07:09:36.806Z,38.63
2023-02-09T07:12:22.724Z,37.47
2023-02-09T07:15:09.105Z,41.47
2023-02-09T07:17:55.232Z,35.45
2023-02-09T07:20:42.100Z,36.72
2023-02-09T07:23:28.568Z,38.55
2023-02-09T07:26:15.991Z,34.33
2023-02-09T07:29:02.522Z,37.50
2023-02-09T07:31:48.768Z,37.60
2023-02-09T07:34:35.632Z,36.72
2023-02-09T07:37:21.990Z,39.63
2023-02-09T07:40:08.488Z,34.72
2023-02-09T07:42:54.982Z,40.08
2023-02-09T07:45:42.045Z,35.97
2023-02-09T07:48:28.799Z,35.45
2023-02-09T07:51:25.318Z,34.20
2023-02-09T07:54:13.685Z,36.03
2023-02-09T07:56:59.851Z,36.05
2023-02-09T07:59:46.017Z,33.33
2023-02-09T08:02:36.482Z,33.67
2023-02-09T08:05:27.271Z,35.55
2023-02-09T08:08:16.745Z,32.65
2023-02-09T08:11:04.495Z,35.25
2023-02-09T08:13:52.443Z,35.83
2023-02-09T08:16:38.904Z,35.80
2023-02-09T08:19:25.340Z,36.10
2023-02-09T08:22:12.013Z,36.88
2023-02-09T08:24:58.660Z,36.28
2023-02-09T08:27:45.363Z,34.78
2023-02-09T08:30:31.798Z,34.17
2023-02-09T08:33:18.221Z,35.42
2023-02-09T08:36:04.706Z,39.28
2023-02-09T08:38:51.125Z,38.22
2023-02-09T08:41:37.973Z,39.50
2023-02-09T08:44:24.477Z,40.08
2023-02-09T08:47:10.773Z,40.95
2023-02-09T08:49:58.317Z,40.72
2023-02-09T08:52:44.721Z,39.30
2023-02-09T08:55:31.377Z,42.42
2023-02-09T08:58:17.809Z,42.53
2023-02-09T09:01:04.081Z,41.10
2023-02-09T09:03:50.364Z,43.08
2023-02-09T09:06:37.518Z,39.28
2023-02-09T09:09:24.670Z,43.85
2023-02-09T09:12:11.380Z,47.65
2023-02-09T09:14:57.748Z,42.53
2023-02-09T09:17:43.918Z,40.80
2023-02-09T09:20:30.305Z,43.05
2023-02-09T09:23:17.210Z,39.47
2023-02-09T09:26:04.055Z,44.35
2023-02-09T09:28:53.829Z,40.33
2023-02-09T09:31:40.279Z,46.17
2023-02-09T09:34:26.752Z,45.45
2023-02-09T09:37:12.764Z,38.35
2023-02-09T09:40:00.314Z,43.45
2023-02-09T09:42:49.512Z,40.53
2023-02-09T09:45:38.986Z,45.00
2023-02-09T09:48:26.409Z,42.63
2023-02-09T09:51:14.272Z,44.30
2023-02-09T09:54:01.380Z,42.08
2023-02-09T09:56:47.740Z,42.80
2023-02-09T09:59:38.630Z,37.65
2023-02-09T10:02:30.578Z,43.17
2023-02-09T10:05:27.514Z,44.50
2023-02-09T10:08:17.171Z,43.95
2023-02-09T10:11:05.054Z,40.65
2023-02-09T10:13:55.657Z,42.10
2023-02-09T10:16:43.651Z,40.30
2023-02-09T10:19:30.667Z,42.05
2023-02-09T10:22:21.405Z,39.75
2023-02-09T10:25:27.753Z,38.47
2023-02-09T10:28:24.917Z,38.83
2023-02-09T10:31:26.449Z,42.60
2023-02-09T10:34:17.385Z,40.30
2023-02-09T10:37:25.858Z,37.85
2023-02-09T10:40:44.754Z,39.00
2023-02-09T10:43:32.654Z,37.45
2023-02-09T10:46:19.840Z,35.28
2023-02-09T10:49:25.925Z,36.80
2023-02-09T10:52:15.308Z,34.25
2023-02-09T10:55:03.600Z,33.20
2023-02-09T10:57:50.158Z,32.85
2023-02-09T11:00:42.583Z,36.92
2023-02-09T11:03:30.336Z,32.77
2023-02-09T11:06:18.095Z,37.28
2023-02-09T11:09:08.378Z,36.97
2023-02-09T11:11:54.824Z,37.70
2023-02-09T11:14:43.422Z,41.65
2023-02-09T11:17:37.754Z,32.72
2023-02-09T11:20:35.902Z,41.25
2023-02-09T11:23:32.288Z,40.67
2023-02-09T11:26:33.879Z,40.03
2023-02-09T11:29:43.356Z,41.15
2023-02-09T11:32:32.734Z,38.15
2023-02-09T11:35:20.217Z,39.33
2023-02-09T11:38:08.466Z,43.15
2023-02-09T11:40:56.722Z,46.28
2023-02-09T11:43:44.227Z,45.28
2023-02-09T11:46:32.826Z,46.65
2023-02-09T11:49:22.328Z,47.95
2023-02-09T11:52:10.066Z,45.67
2023-02-09T11:54:59.386Z,45.70
2023-02-09T11:57:48.452Z,49.80
2023-02-09T12:00:53.158Z,47.72
2023-02-09T12:03:43.987Z,49.47
2023-02-09T12:06:33.716Z,51.03
2023-02-09T12:09:19.968Z,45.20
2023-02-09T12:12:11.496Z,47.58
2023-02-09T12:15:00.648Z,47.90
2023-02-09T12:17:52.612Z,53.45
2023-02-09T12:20:39.797Z,54.83
2023-02-09T12:23:32.499Z,52.65
2023-02-09T12:26:18.707Z,53.13
2023-02-09T12:29:23.876Z,55.60
2023-02-09T12:32:12.268Z,52.40
2023-02-09T12:35:21.385Z,56.65
2023-02-09T12:38:21.538Z,49.97
2023-02-09T12:41:08.495Z,51.55
2023-02-09T12:44:18.621Z,49.47
2023-02-09T12:47:24.606Z,54.22
2023-02-09T12:50:41.895Z,54.78
2023-02-09T12:53:28.375Z,48.70
2023-02-09T12:56:14.456Z,53.40
2023-02-09T12:59:14.350Z,54.00
2023-02-09T13:02:03.686Z,50.33
2023-02-09T13:05:08.908Z,49.42
2023-02-09T13:07:55.486Z,52.28
2023-02-09T13:10:54.132Z,52.85
2023-02-09T13:13:44.316Z,48.35
2023-02-09T13:16:30.489Z,49.50
2023-02-09T13:19:22.697Z,52.13
2023-02-09T13:22:09.024Z,48.83
2023-02-09T13:24:58.757Z,52.00
2023-02-09T13:27:49.060Z,48.88
2023-02-09T13:30:35.555Z,46.60
2023-02-09T13:33:21.792Z,49.65
2023-02-09T13:36:28.387Z,45.13
2023-02-09T13:39:22.850Z,43.10
2023-02-09T13:42:20.300Z,49.78
2023-02-09T13:45:17.430Z,43.15
2023-02-09T13:48:05.518Z,43.40
2023-02-09T13:50:52.200Z,41.47
2023-02-09T13:53:38.672Z,39.30
2023-02-09T13:56:24.895Z,42.58
2023-02-09T13:59:17.730Z,40.28
2023-02-09T14:02:04.045Z,38.03
2023-02-09T14:04:53.857Z,35.70
2023-02-09T14:07:40.124Z,35.17
2023-02-09T14:10:26.918Z,38.95
2023-02-09T14:13:22.502Z,38.10
2023-02-09T14:16:09.543Z,36.17
2023-02-09T14:18:56.953Z,43.28
2023-02-09T14:21:43.377Z,37.55
2023-02-09T14:24:40.489Z,40.22
2023-02-09T14:27:28.500Z,38.08
2023-02-09T14:30:25.787Z,31.23
2023-02-09T14:33:24.928Z,35.75
2023-02-09T14:36:25.451Z,31.75
2023-02-09T14:39:17.195Z,33.35
2023-02-09T14:42:18.819Z,31.90
2023-02-09T14:45:14.267Z,31.90
2023-02-09T14:48:00.353Z,35.08
2023-02-09T14:50:46.982Z,32.03
2023-02-09T14:53:33.956Z,32.28
2023-02-09T14:56:23.497Z,30.55
2023-02-09T14:59:15.731Z,34.22
2023-02-09T15:02:02.104Z,33.35
2023-02-09T15:04:48.557Z,31.05
2023-02-09T15:07:36.234Z,32.28
2023-02-09T15:10:28.672Z,31.45
2023-02-09T15:13:17.193Z,34.58
2023-02-09T15:16:03.152Z,33.03
2023-02-09T15:18:49.580Z,33.55
2023-02-09T15:21:35.640Z,34.83
2023-02-09T15:24:22.244Z,28.98
2023-02-09T15:27:14.860Z,30.08
2023-02-09T15:30:04.085Z,22.73
2023-02-09T15:32:51.293Z,32.50
2023-02-09T15:35:37.377Z,31.75
2023-02-09T15:38:23.693Z,30.37
2023-02-09T15:41:28.936Z,31.15
2023-02-09T15:44:36.445Z,30.73
2023-02-09T15:47:41.315Z,28.30
2023-02-09T15:50:31.753Z,33.80
2023-02-09T15:53:22.147Z,34.70
2023-02-09T15:56:09.171Z,32.33
2023-02-09T15:58:59.009Z,30.35
2023-02-09T16:01:45.532Z,35.92
2023-02-09T16:04:31.910Z,29.98
2023-02-09T16:07:25.204Z,30.52
2023-02-09T16:10:13.546Z,29.10
2023-02-09T16:12:59.863Z,33.40
2023-02-09T16:15:46.110Z,34.45
2023-02-09T16:18:32.351Z,32.63
2023-02-09T16:21:21.432Z,30.77
2023-02-09T16:24:08.336Z,33.13
2023-02-09T16:26:54.664Z,32.83
2023-02-09T16:29:41.163Z,32.00
2023-02-09T16:32:28.879Z,32.60
2023-02-09T16:35:17.258Z,33.05
2023-02-09T16:38:03.938Z,35.63
2023-02-09T16:40:51.253Z,33.70
2023-02-09T16:43:37.655Z,38.90
2023-02-09T16:46:24.092Z,36.97
2023-02-09T16:49:15.142Z,36.35
2023-02-09T16:52:21.215Z,31.40
2023-02-09T16:55:12.069Z,34.00
2023-02-09T16:57:59.050Z,31.90
2023-02-09T17:00:45.678Z,36.92
2023-02-09T17:03:37.655Z,35.38
2023-02-09T17:06:25.747Z,35.78
2023-02-09T17:09:21.009Z,33.95
2023-02-09T17:12:07.537Z,36.25
2023-02-09T17:14:53.915Z,34.97
2023-02-09T17:17:40.444Z,37.80
2023-02-09T17:20:28.530Z,36.97
2023-02-09T17:23:18.995Z,37.38
2023-02-09T17:26:05.649Z,37.50
2023-02-09T17:28:52.012Z,37.35
2023-02-09T17:31:52.273Z,35.40
2023-02-09T17:34:39.325Z,34.22
2023-02-09T17:37:25.518Z,33.75
2023-02-09T17:40:19.112Z,34.90
2023-02-09T17:43:06.227Z,34.65
2023-02-09T17:45:53.567Z,35.15
2023-02-09T17:48:40.053Z,36.63
2023-02-09T17:51:32.391Z,33.88
2023-02-09T17:54:19.554Z,37.15
2023-02-09T17:57:06.476Z,37.75
2023-02-09T17:59:53.013Z,40.75
2023-02-09T18:02:39.146Z,38.35
2023-02-09T18:05:26.946Z,35.28
2023-02-09T18:08:16.681Z,36.95
2023-02-09T18:11:03.071Z,36.92
2023-02-09T18:13:54.814Z,35.60
2023-02-09T18:16:48.063Z,36.17
2023-02-09T18:19:34.954Z,38.60
2023-02-09T18:22:24.353Z,38.58
2023-02-09T18:25:21.957Z,39.30
2023-02-09T18:28:12.282Z,39.65
2023-02-09T18:30:58.976Z,39.03
2023-02-09T18:33:45.394Z,40.50
2023-02-09T18:36:34.181Z,38.45
2023-02-09T18:39:29.132Z,39.63
2023-02-09T18:46:15.139Z,40.00
2023-02-09T18:49:03.528Z,40.33
2023-02-09T18:51:52.489Z,41.50
2023-02-09T18:54:41.002Z,42.28
2023-02-09T18:57:27.650Z,40.50
2023-02-09T19:00:15.743Z,38.35
2023-02-09T19:03:02.949Z,42.97
2023-02-09T19:05:49.778Z,42.88
2023-02-09T19:08:36.130Z,40.45
2023-02-09T19:11:23.318Z,38.17
2023-02-09T19:14:28.027Z,40.05
2023-02-09T19:17:16.152Z,40.33
2023-02-09T19:20:04.437Z,42.05
2023-02-09T19:22:54.016Z,44.28
2023-02-09T19:25:40.472Z,42.80
2023-02-09T19:28:29.033Z,40.17
2023-02-09T19:31:16.003Z,43.13
2023-02-09T19:34:02.148Z,41.50
2023-02-09T19:36:48.831Z,42.55
2023-02-09T19:39:38.812Z,46.22
2023-02-09T19:42:24.932Z,42.67
2023-02-09T19:45:10.910Z,42.40
2023-02-09T19:47:58.766Z,42.15
2023-02-09T19:50:45.190Z,42.47
2023-02-09T19:53:34.734Z,41.13
2023-02-09T19:56:23.454Z,39.45
2023-02-09T19:59:17.322Z,39.35
2023-02-09T20:02:03.715Z,44.30
2023-02-09T20:04:50.272Z,38.15
2023-02-09T20:07:39.440Z,39.47
2023-02-09T20:10:26.308Z,40.65
2023-02-09T20:13:16.268Z,35.75
2023-02-09T20:16:08.124Z,41.00
2023-02-09T20:18:55.352Z,43.80
2023-02-09T20:21:43.006Z,42.47
2023-02-09T20:24:29.472Z,42.25
2023-02-09T20:27:15.532Z,42.40
2023-02-09T20:30:05.791Z,38.13
2023-02-09T20:32:52.208Z,42.55
2023-02-09T20:35:42.034Z,46.28
2023-02-09T20:38:28.261Z,37.92
2023-02-09T20:41:16.123Z,39.75
2023-02-09T20:44:21.220Z,39.22
2023-02-09T20:47:07.632Z,45.03
2023-02-09T20:49:56.601Z,39.88
2023-02-09T20:52:45.692Z,41.90
2023-02-09T20:55:32.123Z,40.40
2023-02-09T20:58:19.324Z,41.97
2023-02-09T21:01:08.903Z,40.83
2023-02-09T21:03:56.726Z,43.85
2023-02-09T21:06:44.089Z,41.60
2023-02-09T21:09:30.411Z,41.05
2023-02-09T21:12:17.168Z,40.75
2023-02-09T21:15:03.441Z,40.95
2023-02-09T21:17:52.336Z,45.83
2023-02-09T21:20:39.545Z,45.15
2023-02-09T21:23:26.713Z,42.92
2023-02-09T21:26:14.696Z,39.00
2023-02-09T21:29:01.581Z,43.53
2023-02-09T21:31:49.034Z,45.38
2023-02-09T21:34:36.633Z,44.08
2023-02-09T21:37:23.797Z,45.45
2023-02-09T21:40:12.530Z,45.45
2023-02-09T21:42:59.165Z,48.50
2023-02-09T21:45:45.605Z,46.33
2023-02-09T21:48:32.618Z,42.90
2023-02-09T21:51:19.144Z,48.25
2023-02-09T21:54:06.258Z,48.85
2023-02-09T21:56:52.998Z,48.08
2023-02-09T21:59:39.097Z,47.55
2023-02-09T22:02:25.548Z,45.67
2023-02-09T22:05:12.251Z,44.55
2023-02-09T22:07:59.164Z,45.40
2023-02-09T22:10:46.002Z,48.75
2023-02-09T22:13:33.220Z,47.63
2023-02-09T22:16:21.178Z,49.20
2023-02-09T22:19:07.443Z,47.03
2023-02-09T22:21:56.915Z,51.15
2023-02-09T22:24:43.015Z,48.90
2023-02-09T22:27:29.175Z,47.47
2023-02-09T22:30:16.055Z,53.38
2023-02-09T22:33:04.002Z,47.58
2023-02-09T22:35:50.382Z,52.92
2023-02-09T22:38:36.867Z,50.63
2023-02-09T22:41:24.241Z,50.50
2023-02-09T22:44:12.674Z,52.55
2023-02-09T22:46:58.856Z,50.42
2023-02-09T22:49:46.827Z,50.53
2023-02-09T22:52:33.333Z,49.60
2023-02-09T22:55:19.485Z,54.85
2023-02-09T22:58:05.670Z,53.67
2023-02-09T23:00:51.984Z,52.88
2023-02-09T23:03:38.778Z,50.38
2023-02-09T23:06:27.252Z,51.83
2023-02-09T23:09:14.163Z,51.67
2023-02-09T23:12:00.513Z,54.72
2023-02-09T23:14:46.851Z,55.30
2023-02-09T23:17:33.220Z,54.75
2023-02-09T23:20:20.124Z,57.20
2023-02-09T23:23:06.740Z,53.97
2023-02-09T23:25:53.045Z,54.72
2023-02-09T23:28:47.616Z,58.35
2023-02-09T23:31:37.124Z,58.05
2023-02-09T23:34:24.033Z,56.63
2023-02-09T23:37:18.688Z,57.15
2023-02-09T23:40:05.646Z,58.38
2023-02-09T23:42:52.332Z,56.05
2023-02-09T23:45:38.572Z,55.13
2023-02-09T23:48:25.365Z,55.92
2023-02-09T23:51:16.354Z,57.08
2023-02-09T23:54:05.194Z,54.35
2023-02-09T23:56:52.538Z,59.58
2023-02-09T23:59:40.269Z,59.97
